Terminal Aerodrome Forecast
Issued by NWS

Home | Current Version | Previous Version | Text Only | Print | Product List | Glossary On
Versions: 1 2 3 4 5 6 7 8 9 10 11 12 13 14 15 16 17 18 19 20 21 22 23 24 25 26 27 28 29 30 31 32 33 34 35 36 37 38 39 40 41 42 43 44
000
FTUS43 KMKX 212202 AAA
TAFENW
TAF AMD
KENW 212202Z 2122/2218 16010KT P6SM BKN010
     FM220000 15007KT P6SM VCSH SCT015 BKN050
     FM220400 15004KT 5SM BR BKN030
     FM220600 19005KT 2SM BR BKN015 BKN060
     FM220800 17006KT 1SM BR BKN010
     FM221200 20004KT 4SM BR BKN015
     FM221500 24005KT P6SM SCT050=

USA.gov is the U.S. government's official web portal to all federal, state and local government web resources and services.